createdAt,value
2019-01-31T00:01:03.531Z,98799.89
2019-01-31T00:03:46.787Z,98807.05
2019-01-31T00:06:26.373Z,98801.69
2019-01-31T00:09:18.164Z,98802.59
2019-01-31T00:12:00.430Z,98807.02
2019-01-31T00:14:43.132Z,98808.47
2019-01-31T00:17:48.910Z,98811.85
2019-01-31T00:20:49.719Z,98809.80
2019-01-31T00:23:46.129Z,98814.89
2019-01-31T00:26:46.868Z,98814.42
2019-01-31T00:29:35.950Z,98814.50
2019-01-31T00:33:01.045Z,98811.08
2019-01-31T00:35:46.838Z,98814.47
2019-01-31T00:38:32.551Z,98823.06
2019-01-31T00:41:21.290Z,98822.13
2019-01-31T00:44:14.664Z,98826.05
2019-01-31T00:47:08.028Z,98823.99
2019-01-31T00:50:10.125Z,98828.19
2019-01-31T00:53:04.763Z,98826.13
2019-01-31T00:55:44.633Z,98832.22
2019-01-31T00:58:30.793Z,98834.71
2019-01-31T01:01:22.637Z,98834.63
2019-01-31T01:04:32.532Z,98836.98
2019-01-31T01:07:06.734Z,98843.40
2019-01-31T01:10:07.507Z,98835.66
2019-01-31T01:13:11.535Z,98839.92
2019-01-31T01:15:51.324Z,98832.83
2019-01-31T01:18:31.390Z,98837.51
2019-01-31T01:21:14.179Z,98833.92
2019-01-31T01:24:00.082Z,98840.42
2019-01-31T01:26:56.212Z,98838.84
2019-01-31T01:29:33.060Z,98830.55
2019-01-31T01:32:18.899Z,98837.70
2019-01-31T01:35:09.140Z,98835.08
2019-01-31T01:38:01.011Z,98834.84
2019-01-31T01:40:46.992Z,98834.59
2019-01-31T01:43:26.912Z,98836.05
2019-01-31T01:46:30.890Z,98830.69
2019-01-31T01:49:10.624Z,98829.02
2019-01-31T01:51:50.705Z,98829.09
2019-01-31T01:55:12.710Z,98826.13
2019-01-31T01:58:05.992Z,98828.03
2019-01-31T02:00:52.067Z,98829.12
2019-01-31T02:03:44.150Z,98831.98
2019-01-31T02:06:30.373Z,98827.03
2019-01-31T02:09:12.814Z,98827.73
2019-01-31T02:12:14.107Z,98823.81
2019-01-31T02:15:15.296Z,98814.22
2019-01-31T02:17:52.395Z,98814.37
2019-01-31T02:20:50.385Z,98810.69
2019-01-31T02:23:51.285Z,98809.72
2019-01-31T02:26:40.412Z,98810.02
2019-01-31T02:29:23.071Z,98810.11
2019-01-31T02:32:08.266Z,98802.03
2019-01-31T02:35:03.489Z,98806.34
2019-01-31T02:37:40.240Z,98805.04
2019-01-31T02:40:48.841Z,98800.97
2019-01-31T02:43:45.321Z,98803.69
2019-01-31T02:46:22.315Z,98804.55
2019-01-31T02:49:03.674Z,98802.72
2019-01-31T02:51:52.759Z,98804.40
2019-01-31T02:54:29.664Z,98804.70
2019-01-31T02:57:18.474Z,98806.05
2019-01-31T03:00:25.629Z,98806.92
2019-01-31T03:03:11.395Z,98799.91
2019-01-31T03:06:09.072Z,98800.23
2019-01-31T03:08:51.918Z,98801.89
2019-01-31T03:11:26.182Z,98797.96
2019-01-31T03:14:10.144Z,98795.63
2019-01-31T03:16:44.672Z,98792.83
2019-01-31T03:19:30.590Z,98792.96
2019-01-31T03:22:34.781Z,98793.64
2019-01-31T03:25:14.915Z,98793.86
2019-01-31T03:28:06.972Z,98796.22
2019-01-31T03:31:17.258Z,98794.48
2019-01-31T03:34:28.965Z,98786.86
2019-01-31T03:37:14.921Z,98789.21
2019-01-31T03:40:26.455Z,98792.18
2019-01-31T03:43:18.502Z,98792.92
2019-01-31T03:46:12.034Z,98797.48
2019-01-31T03:48:52.048Z,98797.41
2019-01-31T03:51:36.995Z,98801.88
2019-01-31T03:54:23.002Z,98799.13
2019-01-31T03:57:19.299Z,98802.81
2019-01-31T03:59:53.173Z,98803.51
2019-01-31T04:02:45.034Z,98800.42
2019-01-31T04:05:25.221Z,98804.91
2019-01-31T04:07:54.853Z,98799.13
2019-01-31T04:10:24.464Z,98792.77
2019-01-31T04:12:54.119Z,98789.36
2019-01-31T04:15:23.769Z,98785.16
2019-01-31T04:17:53.300Z,98785.52
2019-01-31T04:20:22.904Z,98793.98
2019-01-31T04:22:52.606Z,98787.05
2019-01-31T04:25:22.269Z,98783.61
2019-01-31T04:27:51.942Z,98783.89
2019-01-31T04:30:21.731Z,98790.65
2019-01-31T04:32:51.478Z,98787.45
2019-01-31T04:35:21.079Z,98796.59
2019-01-31T04:37:50.735Z,98792.25
2019-01-31T04:40:31.061Z,98795.45
2019-01-31T04:42:51.757Z,98800.00
2019-01-31T04:45:21.259Z,98797.26
2019-01-31T04:47:50.827Z,98794.20
2019-01-31T04:50:20.450Z,98796.30
2019-01-31T04:52:50.070Z,98794.02
2019-01-31T04:55:19.692Z,98796.61
2019-01-31T04:57:49.252Z,98794.66
2019-01-31T05:00:19.624Z,98788.06
2019-01-31T05:02:49.889Z,98790.90
2019-01-31T05:05:19.614Z,98796.44
2019-01-31T05:07:49.253Z,98797.67
2019-01-31T05:10:18.841Z,98796.45
2019-01-31T05:12:48.516Z,98789.33
2019-01-31T05:15:18.139Z,98793.27
2019-01-31T05:17:47.721Z,98789.33
2019-01-31T05:20:18.541Z,98791.13
2019-01-31T05:22:48.249Z,98791.80
2019-01-31T05:25:17.920Z,98787.37
2019-01-31T05:27:47.422Z,98789.16
2019-01-31T05:30:17.880Z,98790.09
2019-01-31T05:32:47.568Z,98789.48
2019-01-31T05:35:17.225Z,98789.36
2019-01-31T05:37:46.835Z,98787.88
2019-01-31T05:40:16.671Z,98798.58
2019-01-31T05:42:46.256Z,98792.54
2019-01-31T05:45:16.779Z,98793.28
2019-01-31T05:47:46.444Z,98784.28
2019-01-31T05:50:19.469Z,98789.95
2019-01-31T05:52:49.049Z,98787.19
2019-01-31T05:55:18.647Z,98784.97
2019-01-31T05:57:48.110Z,98788.95
2019-01-31T06:00:25.126Z,98785.62
2019-01-31T06:02:54.611Z,98787.95
2019-01-31T06:05:24.190Z,98781.91
2019-01-31T06:07:53.855Z,98794.86
2019-01-31T06:10:23.334Z,98783.45
2019-01-31T06:12:52.953Z,98785.38
2019-01-31T06:15:22.570Z,98789.45
2019-01-31T06:17:52.068Z,98792.98
2019-01-31T06:20:25.353Z,98787.81
2019-01-31T06:22:55.038Z,98784.03
2019-01-31T06:25:24.697Z,98786.98
2019-01-31T06:27:54.411Z,98782.91
2019-01-31T06:30:23.965Z,98783.16
2019-01-31T06:32:53.544Z,98777.74
2019-01-31T06:35:23.177Z,98789.06
2019-01-31T06:37:52.711Z,98783.32
2019-01-31T06:40:22.852Z,98779.98
2019-01-31T06:42:52.500Z,98777.77
2019-01-31T06:45:23.154Z,98782.02
2019-01-31T06:47:52.833Z,98782.17
2019-01-31T06:50:22.324Z,98783.97
2019-01-31T06:52:51.959Z,98788.67
2019-01-31T06:55:21.721Z,98781.55
2019-01-31T06:57:51.255Z,98784.89
2019-01-31T07:00:25.148Z,98782.04
2019-01-31T07:02:54.784Z,98779.75
2019-01-31T07:05:24.400Z,98791.23
2019-01-31T07:07:53.986Z,98790.31
2019-01-31T07:10:26.428Z,98789.68
2019-01-31T07:12:56.010Z,98793.36
2019-01-31T07:15:25.650Z,98800.33
2019-01-31T07:17:55.143Z,98802.89
2019-01-31T07:20:24.909Z,98812.23
2019-01-31T07:22:54.545Z,98813.73
2019-01-31T07:25:25.568Z,98822.84
2019-01-31T07:27:55.244Z,98820.31
2019-01-31T07:30:26.861Z,98829.42
2019-01-31T07:32:56.418Z,98831.26
2019-01-31T07:35:26.023Z,98836.30
2019-01-31T07:37:55.650Z,98838.38
2019-01-31T07:40:25.341Z,98840.45
2019-01-31T07:42:54.932Z,98839.04
2019-01-31T07:45:30.646Z,98840.00
2019-01-31T07:48:00.423Z,98841.54
2019-01-31T07:50:30.071Z,98844.97
2019-01-31T07:52:59.690Z,98836.67
2019-01-31T07:55:29.308Z,98838.42
2019-01-31T07:57:58.841Z,98842.58
2019-01-31T08:00:28.629Z,98838.05
2019-01-31T08:02:58.374Z,98840.30
2019-01-31T08:05:28.204Z,98837.66
2019-01-31T08:07:58.608Z,98839.09
2019-01-31T08:10:35.633Z,98844.03
2019-01-31T08:13:05.452Z,98837.89
2019-01-31T08:15:35.106Z,98832.77
2019-01-31T08:18:05.041Z,98834.20
2019-01-31T08:20:34.702Z,98829.64
2019-01-31T08:23:04.269Z,98837.05
2019-01-31T08:25:33.834Z,98836.34
2019-01-31T08:28:03.580Z,98837.86
2019-01-31T08:30:37.842Z,98836.33
2019-01-31T08:33:07.801Z,98828.00
2019-01-31T08:35:37.482Z,98829.73
2019-01-31T08:38:07.109Z,98829.55
2019-01-31T08:40:36.706Z,98822.34
2019-01-31T08:43:06.369Z,98818.43
2019-01-31T08:45:35.995Z,98813.16
2019-01-31T08:48:06.023Z,98812.50
2019-01-31T08:50:35.823Z,98811.03
2019-01-31T08:53:05.525Z,98812.32
2019-01-31T08:55:35.269Z,98810.08
2019-01-31T08:58:05.033Z,98809.19
2019-01-31T09:00:34.675Z,98817.23
2019-01-31T09:03:04.424Z,98811.95
2019-01-31T09:05:34.209Z,98812.66
2019-01-31T09:08:03.775Z,98819.05
2019-01-31T09:10:37.014Z,98815.12
2019-01-31T09:13:09.412Z,98817.97
2019-01-31T09:15:39.056Z,98808.03
2019-01-31T09:18:08.818Z,98809.31
2019-01-31T09:20:54.780Z,98805.35
2019-01-31T09:23:34.690Z,98809.25
2019-01-31T09:26:11.350Z,98809.95
2019-01-31T09:29:06.430Z,98803.53
2019-01-31T09:32:08.828Z,98799.38
2019-01-31T09:35:00.544Z,98803.58
2019-01-31T09:38:17.840Z,98805.55
2019-01-31T09:41:00.947Z,98802.17
2019-01-31T09:44:17.181Z,98806.14
2019-01-31T09:47:16.710Z,98803.11
2019-01-31T09:50:05.686Z,98802.99
2019-01-31T09:53:03.711Z,98799.25
2019-01-31T09:56:03.315Z,98803.58
2019-01-31T09:59:13.097Z,98806.41
2019-01-31T10:01:59.194Z,98801.94
2019-01-31T10:04:35.830Z,98798.86
2019-01-31T10:07:41.321Z,98804.31
2019-01-31T10:10:30.548Z,98795.91
2019-01-31T10:13:22.455Z,98801.82
2019-01-31T10:16:17.372Z,98798.31
2019-01-31T10:19:02.887Z,98793.88
2019-01-31T10:21:45.610Z,98798.67
2019-01-31T10:24:28.556Z,98798.67
2019-01-31T10:27:14.691Z,98796.64
2019-01-31T10:30:07.997Z,98797.25
2019-01-31T10:32:53.412Z,98795.81
2019-01-31T10:35:48.310Z,98797.81
2019-01-31T10:38:38.573Z,98783.91
2019-01-31T10:41:21.213Z,98783.28
2019-01-31T10:44:07.190Z,98777.20
2019-01-31T10:46:46.687Z,98775.89
2019-01-31T10:49:29.575Z,98771.59
2019-01-31T10:52:39.508Z,98774.56
2019-01-31T10:55:25.462Z,98766.61
2019-01-31T10:58:20.405Z,98761.39
2019-01-31T11:01:00.648Z,98762.98
2019-01-31T11:03:46.462Z,98755.02
2019-01-31T11:06:38.111Z,98746.44
2019-01-31T11:10:05.627Z,98754.72
2019-01-31T11:13:15.352Z,98686.70
2019-01-31T11:16:42.865Z,98741.61
2019-01-31T11:19:52.673Z,98737.05
2019-01-31T11:23:24.223Z,98737.45
2019-01-31T11:26:34.029Z,98740.28
2019-01-31T11:29:43.827Z,98737.16
2019-01-31T11:32:53.563Z,98729.75
2019-01-31T11:36:21.094Z,98722.52
2019-01-31T11:39:30.832Z,98724.78
2019-01-31T11:42:40.605Z,98727.00
2019-01-31T11:45:50.364Z,98720.36
2019-01-31T11:49:00.117Z,98642.16
2019-01-31T11:52:27.668Z,98678.66
2019-01-31T11:55:37.390Z,98722.49
2019-01-31T11:58:47.137Z,98714.73
2019-01-31T12:01:36.063Z,98717.56
2019-01-31T12:04:17.783Z,98713.53
2019-01-31T12:07:06.726Z,98713.05
2019-01-31T12:09:55.843Z,98715.56
2019-01-31T12:12:25.440Z,98714.13
2019-01-31T12:15:14.744Z,98720.52
2019-01-31T12:18:03.610Z,98722.38
2019-01-31T12:20:52.467Z,98718.39
2019-01-31T12:23:41.330Z,98668.36
2019-01-31T12:26:30.273Z,98657.91
2019-01-31T12:28:59.789Z,98648.92
2019-01-31T12:31:48.697Z,98718.88
2019-01-31T12:34:37.629Z,98709.52
2019-01-31T12:37:26.469Z,98667.98
2019-01-31T12:40:36.188Z,98716.80
2019-01-31T12:43:34.700Z,98717.24
2019-01-31T12:46:15.820Z,98717.68
2019-01-31T12:49:04.758Z,98715.83
2019-01-31T12:51:54.067Z,98695.39
2019-01-31T12:54:42.890Z,98715.05
2019-01-31T12:57:31.714Z,98689.97
2019-01-31T13:00:41.431Z,98705.85
2019-01-31T13:03:30.397Z,98703.16
2019-01-31T13:06:11.469Z,98699.42
2019-01-31T13:08:50.696Z,98709.11
2019-01-31T13:11:39.605Z,98711.41
2019-01-31T13:14:28.710Z,98713.03
2019-01-31T13:17:17.470Z,98706.68
2019-01-31T13:20:26.746Z,98630.19
2019-01-31T13:23:05.863Z,98703.98
2019-01-31T13:25:54.788Z,98702.17
2019-01-31T13:28:43.710Z,98704.02
2019-01-31T13:31:32.554Z,98698.80
2019-01-31T13:34:21.426Z,98699.28
2019-01-31T13:37:10.333Z,98699.50
2019-01-31T13:39:58.813Z,98696.47
2019-01-31T13:42:47.909Z,98693.18
2019-01-31T13:45:36.939Z,98697.53
2019-01-31T13:48:25.806Z,98697.78
2019-01-31T13:51:14.610Z,98703.16
2019-01-31T13:54:03.602Z,98700.31
2019-01-31T13:56:52.455Z,98703.16
2019-01-31T13:59:41.304Z,98696.69
2019-01-31T14:02:10.903Z,98693.51
2019-01-31T14:04:59.726Z,98695.80
2019-01-31T14:10:51.163Z,98699.22
2019-01-31T14:13:39.992Z,98692.86
2019-01-31T14:16:28.836Z,98692.97
2019-01-31T14:19:17.608Z,98690.37
2019-01-31T14:22:06.594Z,98696.76
2019-01-31T14:24:55.409Z,98701.08
2019-01-31T14:27:44.413Z,98700.86
2019-01-31T14:30:54.188Z,98698.91
2019-01-31T14:33:43.040Z,98698.13
2019-01-31T14:36:52.738Z,98694.48
2019-01-31T14:39:41.590Z,98693.33
2019-01-31T14:42:30.431Z,98690.83
2019-01-31T14:45:19.317Z,98689.69
2019-01-31T14:48:08.334Z,98694.23
2019-01-31T14:50:38.115Z,98696.05
2019-01-31T14:53:27.063Z,98697.63
2019-01-31T14:56:15.985Z,98691.47
2019-01-31T14:59:04.905Z,98695.91
2019-01-31T15:01:53.710Z,98694.90
2019-01-31T15:04:35.578Z,98694.45
2019-01-31T15:07:05.245Z,98691.97
2019-01-31T15:09:54.099Z,98701.77
2019-01-31T15:12:43.008Z,98700.06
2019-01-31T15:15:31.868Z,98695.17
2019-01-31T15:18:20.813Z,98696.92
2019-01-31T15:20:50.316Z,98695.45
2019-01-31T15:23:39.225Z,98697.29
2019-01-31T15:26:29.106Z,98693.41
2019-01-31T15:29:18.747Z,98693.29
2019-01-31T15:32:07.743Z,98673.98
2019-01-31T15:34:56.542Z,98693.62
2019-01-31T15:37:45.451Z,98688.41
2019-01-31T15:40:53.630Z,98689.99
2019-01-31T15:43:42.577Z,98598.13
2019-01-31T15:46:31.418Z,98686.53
2019-01-31T15:49:20.251Z,98609.42
2019-01-31T15:52:09.201Z,98675.02
2019-01-31T15:54:58.040Z,98671.71
2019-01-31T15:57:46.944Z,98668.05
2019-01-31T16:00:56.672Z,98668.80
2019-01-31T16:03:45.569Z,98663.55
2019-01-31T16:06:34.401Z,98665.64
2019-01-31T16:09:24.259Z,98657.97
2019-01-31T16:12:13.847Z,98660.32
2019-01-31T16:15:02.818Z,98659.68
2019-01-31T16:17:52.506Z,98654.95
2019-01-31T16:20:22.783Z,98656.48
2019-01-31T16:23:11.877Z,98656.41
2019-01-31T16:25:41.537Z,98652.13
2019-01-31T16:28:30.463Z,98643.31
2019-01-31T16:31:19.246Z,98638.83
2019-01-31T16:34:08.150Z,98633.30
2019-01-31T16:36:57.091Z,98624.71
2019-01-31T16:39:45.944Z,98623.25
2019-01-31T16:42:34.870Z,98619.86
2019-01-31T16:45:23.836Z,98627.31
2019-01-31T16:48:32.019Z,98628.56
2019-01-31T16:51:20.847Z,98559.47
2019-01-31T16:54:09.783Z,98632.62
2019-01-31T16:56:58.713Z,98633.57
2019-01-31T16:59:47.595Z,98559.28
2019-01-31T17:02:36.539Z,98641.26
2019-01-31T17:14:54.616Z,98626.48
2019-01-31T17:17:43.574Z,98618.91
2019-01-31T17:39:26.999Z,98598.63
2019-01-31T17:41:56.576Z,98597.57
2019-01-31T21:52:04.211Z,98315.55
2019-01-31T22:24:55.098Z,98254.77
2019-01-31T22:27:44.098Z,98252.52
2019-01-31T22:36:24.103Z,98249.85
2019-01-31T22:39:13.001Z,98235.59
2019-01-31T23:06:01.677Z,98202.09
2019-01-31T23:11:39.635Z,98195.45
2019-01-31T23:14:28.531Z,98194.20
2019-01-31T23:16:58.190Z,98133.24
2019-01-31T23:19:47.109Z,98192.77
2019-01-31T23:22:35.909Z,98140.16
2019-01-31T23:25:24.773Z,98182.28
2019-01-31T23:28:14.373Z,98179.22
2019-01-31T23:33:58.522Z,98137.66
2019-01-31T23:36:47.468Z,98162.95
2019-01-31T23:39:36.243Z,98123.88
2019-01-31T23:42:25.166Z,98141.38
2019-01-31T23:45:34.895Z,98133.92
2019-01-31T23:48:23.816Z,98122.39
2019-01-31T23:51:12.677Z,98116.30
2019-01-31T23:54:01.540Z,98107.25
2019-01-31T23:56:50.416Z,98092.19
2019-01-31T23:59:39.258Z,98070.16
